createdAt,value
2018-11-07T00:00:19.439Z,28.10
2018-11-07T00:02:48.820Z,29.33
2018-11-07T00:05:18.978Z,28.10
2018-11-07T00:07:48.234Z,26.27
2018-11-07T00:10:17.451Z,24.47
2018-11-07T00:12:46.720Z,26.03
2018-11-07T00:15:16.541Z,31.47
2018-11-07T00:17:45.752Z,27.00
2018-11-07T00:20:14.915Z,30.83
2018-11-07T00:22:44.105Z,25.93
2018-11-07T00:25:13.437Z,25.90
2018-11-07T00:27:42.776Z,27.67
2018-11-07T00:30:12.488Z,28.23
2018-11-07T00:32:41.643Z,27.53
2018-11-07T00:35:11.800Z,27.17
2018-11-07T00:37:41.983Z,31.67
2018-11-07T00:40:11.370Z,27.30
2018-11-07T00:42:40.591Z,26.23
2018-11-07T00:45:11.646Z,26.53
2018-11-07T00:47:40.825Z,27.63
2018-11-07T00:50:12.787Z,26.17
2018-11-07T00:52:42.304Z,26.93
2018-11-07T00:55:12.293Z,28.63
2018-11-07T00:57:41.668Z,28.20
2018-11-07T01:00:13.597Z,26.50
2018-11-07T01:02:42.807Z,23.20
2018-11-07T01:05:13.295Z,29.23
2018-11-07T01:07:43.503Z,23.40
2018-11-07T01:10:12.736Z,26.07
2018-11-07T01:12:42.825Z,25.37
2018-11-07T01:15:12.969Z,25.67
2018-11-07T01:17:42.158Z,24.53
2018-11-07T01:20:12.902Z,26.33
2018-11-07T01:22:47.125Z,26.87
2018-11-07T01:25:16.412Z,26.50
2018-11-07T01:27:45.575Z,26.50
2018-11-07T01:30:15.231Z,31.67
2018-11-07T01:32:44.450Z,28.73
2018-11-07T01:35:13.760Z,26.90
2018-11-07T01:37:42.909Z,27.33
2018-11-07T01:40:13.972Z,28.60
2018-11-07T01:42:44.033Z,30.07
2018-11-07T01:45:13.784Z,28.17
2018-11-07T01:47:43.075Z,26.87
2018-11-07T01:50:13.325Z,26.07
2018-11-07T01:52:42.504Z,28.07
2018-11-07T01:55:12.009Z,27.47
2018-11-07T01:57:41.243Z,26.67
2018-11-07T02:00:12.220Z,24.93
2018-11-07T02:02:42.650Z,36.30
2018-11-07T02:05:11.897Z,54.77
2018-11-07T02:07:41.328Z,59.73
2018-11-07T02:10:11.118Z,50.10
2018-11-07T02:12:40.928Z,39.60
2018-11-07T02:15:10.906Z,35.87
2018-11-07T02:17:40.272Z,39.67
2018-11-07T02:20:10.409Z,31.60
2018-11-07T02:22:39.648Z,26.57
2018-11-07T02:25:08.991Z,30.83
2018-11-07T02:27:38.228Z,30.30
2018-11-07T02:30:10.002Z,27.00
2018-11-07T02:32:39.184Z,27.90
2018-11-07T02:35:08.432Z,27.30
2018-11-07T02:37:37.611Z,28.23
2018-11-07T02:40:07.604Z,32.50
2018-11-07T02:42:36.872Z,26.90
2018-11-07T02:45:06.362Z,25.33
2018-11-07T02:47:35.518Z,21.13
2018-11-07T02:50:04.863Z,31.73
2018-11-07T02:52:33.998Z,27.30
2018-11-07T02:55:15.938Z,26.13
2018-11-07T02:57:45.104Z,30.33
2018-11-07T03:00:14.515Z,32.10
2018-11-07T03:02:43.650Z,31.30
2018-11-07T03:05:12.861Z,31.97
2018-11-07T03:07:42.214Z,29.80
2018-11-07T03:10:12.802Z,28.43
2018-11-07T03:12:42.400Z,24.83
2018-11-07T03:15:11.576Z,26.37
2018-11-07T03:17:40.757Z,28.10
2018-11-07T03:20:11.390Z,27.50
2018-11-07T03:22:40.575Z,25.77
2018-11-07T03:25:09.889Z,23.77
2018-11-07T03:27:39.021Z,29.43
2018-11-07T03:30:09.175Z,34.13
2018-11-07T03:32:38.386Z,32.33
2018-11-07T03:35:11.869Z,29.53
2018-11-07T03:37:41.061Z,28.87
2018-11-07T03:40:10.223Z,35.50
2018-11-07T03:42:39.375Z,23.67
2018-11-07T03:45:08.548Z,28.33
2018-11-07T03:47:37.730Z,31.93
2018-11-07T03:50:07.022Z,21.90
2018-11-07T03:52:36.240Z,27.53
2018-11-07T03:55:05.412Z,26.27
2018-11-07T03:57:34.640Z,29.00
2018-11-07T04:00:04.029Z,28.90
2018-11-07T04:02:33.179Z,26.97
2018-11-07T04:05:02.689Z,32.77
2018-11-07T04:07:31.851Z,46.43
2018-11-07T04:10:00.983Z,37.00
2018-11-07T04:12:30.148Z,47.33
2018-11-07T04:14:59.380Z,38.90
2018-11-07T04:17:28.528Z,43.43
2018-11-07T04:19:57.689Z,39.77
2018-11-07T04:22:26.834Z,35.50
2018-11-07T04:24:56.025Z,37.83
2018-11-07T04:27:29.637Z,38.83
2018-11-07T04:29:59.145Z,40.57
2018-11-07T04:32:28.368Z,46.23
2018-11-07T04:34:57.604Z,36.13
2018-11-07T04:37:26.776Z,40.93
2018-11-07T04:39:55.985Z,39.33
2018-11-07T04:42:25.208Z,36.73
2018-11-07T04:44:54.375Z,33.57
2018-11-07T04:47:23.765Z,30.47
2018-11-07T04:49:52.960Z,39.97
2018-11-07T04:52:22.167Z,28.23
2018-11-07T04:54:51.306Z,33.67
2018-11-07T04:57:20.505Z,35.97
2018-11-07T04:59:49.608Z,34.83
2018-11-07T05:02:18.811Z,30.50
2018-11-07T05:04:47.913Z,29.40
2018-11-07T05:07:17.128Z,35.23
2018-11-07T05:09:49.109Z,32.73
2018-11-07T05:12:18.285Z,31.27
2018-11-07T05:14:53.111Z,37.37
2018-11-07T05:17:22.338Z,36.03
2018-11-07T05:19:51.576Z,35.53
2018-11-07T05:22:20.744Z,33.40
2018-11-07T05:24:49.916Z,36.10
2018-11-07T05:27:19.131Z,36.30
2018-11-07T05:29:48.241Z,37.87
2018-11-07T05:32:17.356Z,37.00
2018-11-07T05:34:46.555Z,36.83
2018-11-07T05:37:15.765Z,38.03
2018-11-07T05:39:44.897Z,34.43
2018-11-07T05:42:14.112Z,36.43
2018-11-07T05:44:43.274Z,38.00
2018-11-07T05:47:12.476Z,42.13
2018-11-07T05:49:41.647Z,43.70
2018-11-07T05:52:10.836Z,36.47
2018-11-07T05:54:40.003Z,40.40
2018-11-07T05:57:09.183Z,39.47
2018-11-07T05:59:38.344Z,38.00
2018-11-07T06:02:07.539Z,40.23
2018-11-07T06:04:36.663Z,43.20
2018-11-07T06:07:05.891Z,45.53
2018-11-07T06:09:35.121Z,39.40
2018-11-07T06:12:04.395Z,42.07
2018-11-07T06:14:33.640Z,45.03
2018-11-07T06:17:02.766Z,36.23
2018-11-07T06:19:31.833Z,40.70
2018-11-07T06:22:00.955Z,36.80
2018-11-07T06:24:30.083Z,35.20
2018-11-07T06:26:59.360Z,37.37
2018-11-07T06:29:28.540Z,37.23
2018-11-07T06:31:57.765Z,34.20
2018-11-07T06:34:26.877Z,36.47
2018-11-07T06:36:56.005Z,40.37
2018-11-07T06:39:25.186Z,37.90
2018-11-07T06:41:54.341Z,40.37
2018-11-07T06:44:23.625Z,39.57
2018-11-07T06:46:52.823Z,38.63
2018-11-07T06:49:21.935Z,41.17
2018-11-07T06:51:51.060Z,40.63
2018-11-07T06:54:20.259Z,38.53
2018-11-07T06:56:49.419Z,40.13
2018-11-07T06:59:18.533Z,40.13
2018-11-07T07:01:47.750Z,69.07
2018-11-07T07:04:17.225Z,47.43
2018-11-07T07:06:46.628Z,39.33
2018-11-07T07:09:15.770Z,44.47
2018-11-07T07:11:44.925Z,38.53
2018-11-07T07:14:14.166Z,41.23
2018-11-07T07:16:43.415Z,33.73
2018-11-07T07:19:13.110Z,37.07
2018-11-07T07:21:42.226Z,43.37
2018-11-07T07:24:11.358Z,37.93
2018-11-07T07:26:40.515Z,38.13
2018-11-07T07:29:09.678Z,38.40
2018-11-07T07:31:38.869Z,36.60
2018-11-07T07:34:08.101Z,41.27
2018-11-07T07:36:37.248Z,41.10
2018-11-07T07:39:08.527Z,37.33
2018-11-07T07:41:37.707Z,37.00
2018-11-07T07:44:07.134Z,37.50
2018-11-07T07:46:36.317Z,40.80
2018-11-07T07:49:05.889Z,33.20
2018-11-07T07:51:35.176Z,34.37
2018-11-07T07:54:04.422Z,32.50
2018-11-07T07:56:33.651Z,32.50
2018-11-07T07:59:02.874Z,37.70
2018-11-07T08:01:32.148Z,32.57
2018-11-07T08:04:01.358Z,37.37
2018-11-07T08:06:33.796Z,32.83
2018-11-07T08:09:02.998Z,31.80
2018-11-07T08:11:32.177Z,31.20
2018-11-07T08:14:01.429Z,34.57
2018-11-07T08:16:30.577Z,35.47
2018-11-07T08:18:59.704Z,30.50
2018-11-07T08:21:29.094Z,32.70
2018-11-07T08:23:58.297Z,35.33
2018-11-07T08:26:27.527Z,35.53
2018-11-07T08:28:56.733Z,35.97
2018-11-07T08:31:25.871Z,33.83
2018-11-07T08:33:55.072Z,32.47
2018-11-07T08:36:24.232Z,34.50
2018-11-07T08:38:53.477Z,31.10
2018-11-07T08:41:22.565Z,35.10
2018-11-07T08:43:51.818Z,35.90
2018-11-07T08:46:21.072Z,36.10
2018-11-07T08:48:50.273Z,34.90
2018-11-07T08:51:19.499Z,33.83
2018-11-07T08:53:48.624Z,34.10
2018-11-07T08:56:17.779Z,35.20
2018-11-07T08:58:46.955Z,37.57
2018-11-07T09:01:16.220Z,36.17
2018-11-07T09:03:45.376Z,34.97
2018-11-07T09:06:14.561Z,35.43
2018-11-07T09:08:43.695Z,36.23
2018-11-07T09:11:12.967Z,34.37
2018-11-07T09:13:42.164Z,33.50
2018-11-07T09:16:11.378Z,34.23
2018-11-07T09:18:40.551Z,32.73
2018-11-07T09:21:09.750Z,32.83
2018-11-07T09:23:38.998Z,32.77
2018-11-07T09:26:08.312Z,35.73
2018-11-07T09:28:37.501Z,34.83
2018-11-07T09:31:06.752Z,32.23
2018-11-07T09:33:36.098Z,34.80
2018-11-07T09:36:05.407Z,34.30
2018-11-07T09:38:34.674Z,34.13
2018-11-07T09:41:03.818Z,32.30
2018-11-07T09:43:33.073Z,31.50
2018-11-07T09:46:02.257Z,34.20
2018-11-07T09:48:31.447Z,32.63
2018-11-07T09:51:00.675Z,34.20
2018-11-07T09:53:29.887Z,33.40
2018-11-07T09:55:59.049Z,33.43
2018-11-07T09:58:28.307Z,33.17
2018-11-07T10:00:57.496Z,31.87
2018-11-07T10:03:26.718Z,33.90
2018-11-07T10:05:55.893Z,33.83
2018-11-07T10:08:25.101Z,33.23
2018-11-07T10:10:54.318Z,33.50
2018-11-07T10:13:23.497Z,33.23
2018-11-07T10:15:52.672Z,33.07
2018-11-07T10:18:21.850Z,33.73
2018-11-07T10:20:51.079Z,32.90
2018-11-07T10:23:20.273Z,32.77
2018-11-07T10:25:49.488Z,31.43
2018-11-07T10:28:18.816Z,32.17
2018-11-07T10:30:47.964Z,31.53
2018-11-07T10:33:17.111Z,31.33
2018-11-07T10:35:46.331Z,30.67
2018-11-07T10:38:15.465Z,31.97
2018-11-07T10:40:44.776Z,29.83
2018-11-07T10:43:13.920Z,30.73
2018-11-07T10:45:43.081Z,32.30
2018-11-07T10:48:12.273Z,31.20
2018-11-07T10:50:41.446Z,29.50
2018-11-07T10:53:10.691Z,29.13
2018-11-07T10:55:39.877Z,27.77
2018-11-07T10:58:09.032Z,30.20
2018-11-07T11:00:43.391Z,29.63
2018-11-07T11:03:17.533Z,28.83
2018-11-07T11:05:46.765Z,30.30
2018-11-07T11:08:16.796Z,29.20
2018-11-07T11:10:45.990Z,28.60
2018-11-07T11:13:15.253Z,29.37
2018-11-07T11:15:44.413Z,26.77
2018-11-07T11:18:13.624Z,29.37
2018-11-07T11:20:42.813Z,28.57
2018-11-07T11:23:12.018Z,28.53
2018-11-07T11:25:41.269Z,28.40
2018-11-07T11:28:10.498Z,27.73
2018-11-07T11:30:39.721Z,26.33
2018-11-07T11:33:08.903Z,27.33
2018-11-07T11:35:38.009Z,29.37
2018-11-07T11:38:07.381Z,26.80
2018-11-07T11:40:36.554Z,28.13
2018-11-07T11:43:05.858Z,27.77
2018-11-07T11:45:35.156Z,29.57
2018-11-07T11:48:04.352Z,26.07
2018-11-07T11:50:33.492Z,28.50
2018-11-07T11:53:02.663Z,27.70
2018-11-07T11:55:31.880Z,27.50
2018-11-07T11:58:01.076Z,27.43
2018-11-07T12:00:30.221Z,26.70
2018-11-07T12:02:59.337Z,26.40
2018-11-07T12:05:28.513Z,27.73
2018-11-07T12:07:57.661Z,26.63
2018-11-07T12:10:27.337Z,26.70
2018-11-07T12:12:57.662Z,27.10
2018-11-07T12:15:27.978Z,27.40
2018-11-07T12:17:57.511Z,28.17
2018-11-07T12:20:26.782Z,26.97
2018-11-07T12:22:55.963Z,28.40
2018-11-07T12:25:25.208Z,29.23
2018-11-07T12:27:54.431Z,28.23
2018-11-07T12:30:24.407Z,27.43
2018-11-07T12:32:54.528Z,27.63
2018-11-07T12:35:24.041Z,26.47
2018-11-07T12:37:53.211Z,30.37
2018-11-07T12:40:22.378Z,29.23
2018-11-07T12:42:51.609Z,28.30
2018-11-07T12:45:20.769Z,27.20
2018-11-07T12:47:49.893Z,29.90
2018-11-07T12:50:20.687Z,27.83
2018-11-07T12:52:49.778Z,28.90
2018-11-07T12:55:19.680Z,29.73
2018-11-07T12:57:48.950Z,29.27
2018-11-07T13:00:21.307Z,26.97
2018-11-07T13:02:50.581Z,28.17
2018-11-07T13:05:20.713Z,27.40
2018-11-07T13:07:50.506Z,29.70
2018-11-07T13:10:20.781Z,29.67
2018-11-07T13:12:50.504Z,29.63
2018-11-07T13:15:19.923Z,31.03
2018-11-07T13:17:50.181Z,29.50
2018-11-07T13:20:20.653Z,29.40
2018-11-07T13:22:51.126Z,27.63
2018-11-07T13:25:20.661Z,28.60
2018-11-07T13:27:49.800Z,28.00
2018-11-07T13:30:20.283Z,25.93
2018-11-07T13:32:49.421Z,26.67
2018-11-07T13:35:19.395Z,25.70
2018-11-07T13:37:49.365Z,23.67
2018-11-07T13:40:22.597Z,24.37
2018-11-07T13:42:51.728Z,22.73
2018-11-07T13:45:22.108Z,22.70
2018-11-07T13:47:52.517Z,22.13
2018-11-07T13:50:21.756Z,23.17
2018-11-07T13:52:51.000Z,22.80
2018-11-07T13:55:20.103Z,23.47
2018-11-07T13:57:49.244Z,22.67
2018-11-07T14:00:19.871Z,22.47
2018-11-07T14:02:49.433Z,23.10
2018-11-07T14:05:18.757Z,21.17
2018-11-07T14:07:47.859Z,21.57
2018-11-07T14:10:20.466Z,20.87
2018-11-07T14:12:49.838Z,21.47
2018-11-07T14:15:19.001Z,21.70
2018-11-07T14:17:48.210Z,20.57
2018-11-07T14:20:17.624Z,19.97
2018-11-07T14:22:46.812Z,19.40
2018-11-07T14:25:15.993Z,24.57
2018-11-07T14:27:45.466Z,23.83
2018-11-07T14:30:18.807Z,23.07
2018-11-07T14:32:51.512Z,24.10
2018-11-07T14:35:21.003Z,23.40
2018-11-07T14:37:50.423Z,23.67
2018-11-07T14:40:19.563Z,27.10
2018-11-07T14:42:48.732Z,26.87
2018-11-07T14:45:17.921Z,27.30
2018-11-07T14:47:47.112Z,28.43
2018-11-07T14:50:16.251Z,29.63
2018-11-07T14:52:45.426Z,29.93
2018-11-07T14:55:14.723Z,30.33
2018-11-07T14:57:43.882Z,31.67
2018-11-07T15:00:14.747Z,26.47
2018-11-07T15:02:44.513Z,28.30
2018-11-07T15:05:14.573Z,29.10
2018-11-07T15:07:44.630Z,30.93
2018-11-07T15:10:14.748Z,28.47
2018-11-07T15:12:44.102Z,29.90
2018-11-07T15:15:14.773Z,29.10
2018-11-07T15:17:44.054Z,29.73
2018-11-07T15:20:14.268Z,28.23
2018-11-07T15:22:43.551Z,30.20
2018-11-07T15:25:13.949Z,27.17
2018-11-07T15:27:44.468Z,27.07
2018-11-07T15:30:14.545Z,27.90
2018-11-07T15:32:44.166Z,28.63
2018-11-07T15:35:13.651Z,28.33
2018-11-07T15:37:42.811Z,26.50
2018-11-07T15:40:15.539Z,27.57
2018-11-07T15:42:45.300Z,28.63
2018-11-07T15:45:15.785Z,29.67
2018-11-07T15:47:45.063Z,27.23
2018-11-07T15:51:17.217Z,28.30
2018-11-07T15:53:46.387Z,27.53
2018-11-07T15:56:15.637Z,28.27
2018-11-07T15:58:44.976Z,27.43
2018-11-07T16:01:14.224Z,28.37
2018-11-07T16:03:48.711Z,27.70
2018-11-07T16:06:19.186Z,27.17
2018-11-07T16:08:48.230Z,27.63
2018-11-07T16:11:17.578Z,25.53
2018-11-07T16:13:49.048Z,23.27
2018-11-07T16:16:18.502Z,27.70
2018-11-07T16:18:47.697Z,26.67
2018-11-07T16:21:16.881Z,28.13
2018-11-07T16:23:46.103Z,26.37
2018-11-07T16:26:15.373Z,30.53
2018-11-07T16:28:44.565Z,35.93
2018-11-07T16:31:13.828Z,29.37
2018-11-07T16:33:43.041Z,25.70
2018-11-07T16:36:12.249Z,32.13
2018-11-07T16:38:41.470Z,31.00
2018-11-07T16:41:10.724Z,25.17
2018-11-07T16:43:40.383Z,27.63
2018-11-07T16:46:09.570Z,29.37
2018-11-07T16:48:38.806Z,29.13
2018-11-07T16:51:08.065Z,30.83
2018-11-07T16:53:37.317Z,30.30
2018-11-07T16:56:06.974Z,28.27
2018-11-07T16:58:36.154Z,31.77
2018-11-07T17:01:05.474Z,26.43
2018-11-07T17:03:34.682Z,24.93
2018-11-07T17:06:03.857Z,29.17
2018-11-07T17:08:33.053Z,30.83
2018-11-07T17:11:02.270Z,27.67
2018-11-07T17:13:31.450Z,29.30
2018-11-07T17:16:00.635Z,27.17
2018-11-07T17:18:29.826Z,29.93
2018-11-07T17:20:59.078Z,27.43
2018-11-07T17:23:28.384Z,29.60
2018-11-07T17:25:57.582Z,30.50
2018-11-07T17:28:26.817Z,28.83
2018-11-07T17:30:56.009Z,32.87
2018-11-07T17:33:25.305Z,33.57
2018-11-07T17:35:54.554Z,30.37
2018-11-07T17:38:23.806Z,28.80
2018-11-07T17:40:53.161Z,28.87
2018-11-07T17:43:22.336Z,27.87
2018-11-07T17:45:51.658Z,28.83
2018-11-07T17:48:21.038Z,27.40
2018-11-07T17:50:50.202Z,30.30
2018-11-07T17:53:19.546Z,27.90
2018-11-07T17:55:49.147Z,30.33
2018-11-07T17:58:18.479Z,29.83
2018-11-07T18:00:47.692Z,31.30
2018-11-07T18:03:17.003Z,29.23
2018-11-07T18:05:46.398Z,40.13
2018-11-07T18:08:15.973Z,38.13
2018-11-07T18:10:45.433Z,42.07
2018-11-07T18:13:14.688Z,35.67
2018-11-07T18:15:44.108Z,40.03
2018-11-07T18:18:13.648Z,37.27
2018-11-07T18:20:43.317Z,39.77
2018-11-07T18:23:12.938Z,39.03
2018-11-07T18:25:42.485Z,35.90
2018-11-07T18:28:12.148Z,38.97
2018-11-07T18:30:41.875Z,34.53
2018-11-07T18:33:11.512Z,29.90
2018-11-07T18:35:41.169Z,34.83
2018-11-07T18:38:10.952Z,33.27
2018-11-07T18:40:40.750Z,36.47
2018-11-07T18:43:10.613Z,28.57
2018-11-07T18:45:40.184Z,29.03
2018-11-07T18:48:09.812Z,32.20
2018-11-07T18:50:39.583Z,29.53
2018-11-07T18:53:09.176Z,30.97
2018-11-07T18:55:38.782Z,33.53
2018-11-07T18:58:08.622Z,33.30
2018-11-07T19:00:38.380Z,35.03
2018-11-07T19:03:08.143Z,35.50
2018-11-07T19:05:38.723Z,34.57
2018-11-07T19:08:08.468Z,32.13
2018-11-07T19:10:38.798Z,37.73
2018-11-07T19:13:08.582Z,36.87
2018-11-07T19:15:38.337Z,36.80
2018-11-07T19:18:08.042Z,36.00
2018-11-07T19:20:37.736Z,38.17
2018-11-07T19:23:07.645Z,33.63
2018-11-07T19:25:37.266Z,36.27
2018-11-07T19:28:07.467Z,34.47
2018-11-07T19:30:37.388Z,32.43
2018-11-07T19:33:07.227Z,34.97
2018-11-07T19:35:36.876Z,31.97
2018-11-07T19:38:06.666Z,36.43
2018-11-07T19:40:36.366Z,37.57
2018-11-07T19:43:06.111Z,37.90
2018-11-07T19:45:35.886Z,37.40
2018-11-07T19:48:05.670Z,33.63
2018-11-07T19:50:35.346Z,33.53
2018-11-07T19:53:05.072Z,36.03
2018-11-07T19:55:34.821Z,35.57
2018-11-07T19:58:09.166Z,36.07
2018-11-07T20:00:38.940Z,36.03
2018-11-07T20:03:08.722Z,33.97
2018-11-07T20:05:38.372Z,39.27
2018-11-07T20:08:08.189Z,41.53
2018-11-07T20:10:38.015Z,40.43
2018-11-07T20:13:07.801Z,35.83
2018-11-07T20:15:37.642Z,36.37
2018-11-07T20:18:08.517Z,35.67
2018-11-07T20:20:38.190Z,36.20
2018-11-07T20:23:07.982Z,35.97
2018-11-07T20:25:37.692Z,38.87
2018-11-07T20:28:07.547Z,31.20
2018-11-07T20:30:37.183Z,38.43
2018-11-07T20:33:07.229Z,37.07
2018-11-07T20:35:36.930Z,36.83
2018-11-07T20:38:06.858Z,35.67
2018-11-07T20:40:36.629Z,34.63
2018-11-07T20:43:06.801Z,33.90
2018-11-07T20:45:36.573Z,36.90
2018-11-07T20:48:06.426Z,34.13
2018-11-07T20:50:36.201Z,37.57
2018-11-07T20:53:06.072Z,35.10
2018-11-07T20:55:35.878Z,38.67
2018-11-07T20:58:05.714Z,35.40
2018-11-07T21:00:35.456Z,37.83
2018-11-07T21:03:05.193Z,32.63
2018-11-07T21:05:34.922Z,33.37
2018-11-07T21:08:04.647Z,35.97
2018-11-07T21:10:34.348Z,34.77
2018-11-07T21:13:04.603Z,33.30
2018-11-07T21:15:34.243Z,35.97
2018-11-07T21:18:03.875Z,31.23
2018-11-07T21:20:33.573Z,32.13
2018-11-07T21:23:03.162Z,36.33
2018-11-07T21:25:32.933Z,32.63
2018-11-07T21:28:02.582Z,30.77
2018-11-07T21:30:33.621Z,33.23
2018-11-07T21:33:03.258Z,34.33
2018-11-07T21:35:32.829Z,35.87
2018-11-07T21:38:02.367Z,33.97
2018-11-07T21:40:31.843Z,32.43
2018-11-07T21:43:01.415Z,31.13
2018-11-07T21:45:30.862Z,28.40
2018-11-07T21:48:00.188Z,32.27
2018-11-07T21:50:29.605Z,31.33
2018-11-07T21:52:58.719Z,30.90
2018-11-07T21:55:28.042Z,30.83
2018-11-07T21:57:57.206Z,28.43
2018-11-07T22:00:26.662Z,32.90
2018-11-07T22:02:55.949Z,34.30
2018-11-07T22:05:25.459Z,33.83
2018-11-07T22:07:54.877Z,32.63
2018-11-07T22:10:24.564Z,32.70
2018-11-07T22:13:12.085Z,34.77
2018-11-07T22:15:41.360Z,29.20
2018-11-07T22:18:14.431Z,33.17
2018-11-07T22:20:43.527Z,28.60
2018-11-07T22:23:12.655Z,31.67
2018-11-07T22:25:41.844Z,31.07
2018-11-07T22:28:11.018Z,28.50
2018-11-07T22:30:40.178Z,28.60
2018-11-07T22:33:09.319Z,31.63
2018-11-07T22:35:38.428Z,29.93
2018-11-07T22:38:07.549Z,32.63
2018-11-07T22:40:36.781Z,28.77
2018-11-07T22:43:06.429Z,34.03
2018-11-07T22:45:36.298Z,34.80
2018-11-07T22:48:05.777Z,31.83
2018-11-07T22:50:35.450Z,30.50
2018-11-07T22:53:04.833Z,28.63
2018-11-07T22:55:34.043Z,32.23
2018-11-07T22:58:03.204Z,38.00
2018-11-07T23:00:37.748Z,37.07
2018-11-07T23:03:06.903Z,34.33
2018-11-07T23:05:36.090Z,34.90
2018-11-07T23:08:05.348Z,44.20
2018-11-07T23:10:34.874Z,43.90
2018-11-07T23:13:04.044Z,43.60
2018-11-07T23:15:38.836Z,38.80
2018-11-07T23:18:07.957Z,33.50
2018-11-07T23:20:37.199Z,35.67
2018-11-07T23:23:06.587Z,33.73
2018-11-07T23:25:35.691Z,33.37
2018-11-07T23:28:04.877Z,32.17
2018-11-07T23:30:34.009Z,31.63
2018-11-07T23:33:03.113Z,32.67
2018-11-07T23:35:32.251Z,33.50
2018-11-07T23:38:01.471Z,30.33
2018-11-07T23:40:30.662Z,30.50
2018-11-07T23:42:59.721Z,26.17
2018-11-07T23:45:28.878Z,28.33
2018-11-07T23:47:57.987Z,28.03
2018-11-07T23:50:27.059Z,29.73
2018-11-07T23:52:56.239Z,28.13
2018-11-07T23:55:25.353Z,30.93
2018-11-07T23:57:54.861Z,30.33
